Time;durP1;ratioP1;P1;durP2;ratioP2;P2;SDS_P1;SDS_P2;PMS_P1;PMS_P2;Temp;Humidity;BMP_temperature;BMP_pressure;BME280_temperature;BME280_humidity;BME280_pressure;Samples;Min_cycle;Max_cycle;Signal;HPM_P1;HPM_P2
2022/11/22 00:00:39;;;;;;;47.80;24.55;;;1.30;99.90;;;;;;4912183;29;20020;-83
2022/11/22 00:03:05;;;;;;;48.28;26.63;;;1.30;99.90;;;;;;4916651;29;20029;-84
2022/11/22 00:05:31;;;;;;;50.95;25.90;;;1.30;99.90;;;;;;4916567;29;20371;-83
2022/11/22 00:07:56;;;;;;;46.20;23.40;;;1.30;99.90;;;;;;4915343;29;20028;-84
2022/11/22 00:10:22;;;;;;;45.67;23.30;;;1.30;99.90;;;;;;4918011;29;20123;-84
2022/11/22 00:12:48;;;;;;;52.35;25.13;;;1.30;99.90;;;;;;4917033;29;20036;-83
2022/11/22 00:15:13;;;;;;;50.78;26.73;;;1.40;99.90;;;;;;4918665;29;20084;-83
2022/11/22 00:17:39;;;;;;;46.05;24.45;;;1.40;99.90;;;;;;4910275;29;20016;-83
2022/11/22 00:20:06;;;;;;;50.75;27.13;;;1.40;99.90;;;;;;4920438;29;20023;-85
2022/11/22 00:22:32;;;;;;;51.38;27.27;;;1.40;99.90;;;;;;4910916;29;20537;-83
2022/11/22 00:24:58;;;;;;;58.35;26.77;;;1.40;99.90;;;;;;4923044;29;20021;-83
2022/11/22 00:27:24;;;;;;;64.05;28.67;;;1.40;99.90;;;;;;4910241;29;20059;-83
2022/11/22 00:29:50;;;;;;;73.13;33.20;;;1.40;99.90;;;;;;4918504;29;20039;-83
2022/11/22 00:32:15;;;;;;;62.85;30.33;;;1.40;99.90;;;;;;4914900;29;20039;-83
2022/11/22 00:34:41;;;;;;;62.08;27.98;;;1.40;99.90;;;;;;4914559;29;20065;-84
2022/11/22 00:37:07;;;;;;;66.93;30.15;;;1.40;99.90;;;;;;4919470;29;20027;-84
2022/11/22 00:39:33;;;;;;;61.33;28.08;;;1.50;99.90;;;;;;4912574;29;20027;-83
2022/11/22 00:41:58;;;;;;;57.70;26.83;;;1.40;99.90;;;;;;4914127;29;20451;-84
2022/11/22 00:44:24;;;;;;;58.95;27.77;;;1.50;99.90;;;;;;4911540;29;20016;-83
2022/11/22 00:46:50;;;;;;;61.05;27.77;;;1.50;99.90;;;;;;4912943;29;20020;-85
2022/11/22 00:49:15;;;;;;;66.78;31.30;;;1.50;99.90;;;;;;4915508;29;20052;-83
2022/11/22 00:51:41;;;;;;;58.72;29.98;;;1.60;99.90;;;;;;4911201;29;20024;-83
2022/11/22 00:54:07;;;;;;;51.65;27.30;;;1.60;99.90;;;;;;4911673;29;20024;-84
2022/11/22 00:56:32;;;;;;;53.08;26.63;;;1.60;99.90;;;;;;4919370;29;20028;-82
2022/11/22 00:58:58;;;;;;;60.60;28.55;;;1.60;99.90;;;;;;4914905;29;20365;-82
2022/11/22 01:01:24;;;;;;;56.08;27.65;;;1.60;99.90;;;;;;4916612;29;20020;-82
2022/11/22 01:03:53;;;;;;;54.78;27.73;;;1.60;99.90;;;;;;4912066;29;20606;-80
2022/11/22 01:06:18;;;;;;;50.28;26.73;;;1.60;99.90;;;;;;4910928;29;20036;-84
2022/11/22 01:08:44;;;;;;;45.72;24.95;;;1.50;99.90;;;;;;4911205;29;20347;-83
2022/11/22 01:11:10;;;;;;;47.08;24.83;;;1.50;99.90;;;;;;4919853;29;20114;-83
2022/11/22 01:13:36;;;;;;;53.33;24.77;;;1.50;99.90;;;;;;4914725;29;20047;-84
2022/11/22 01:16:07;;;;;;;50.20;24.45;;;1.50;99.90;;;;;;4912999;29;20418;-83
2022/11/22 01:18:33;;;;;;;45.10;23.58;;;1.50;99.90;;;;;;4912750;29;20377;-83
2022/11/22 01:20:59;;;;;;;56.88;26.70;;;1.50;99.90;;;;;;4918048;29;20059;-80
2022/11/22 01:23:25;;;;;;;44.80;24.80;;;1.50;99.90;;;;;;4911865;29;20498;-82
2022/11/22 01:25:51;;;;;;;50.10;24.55;;;1.50;99.90;;;;;;4910400;29;20039;-83
2022/11/22 01:28:17;;;;;;;57.28;26.25;;;1.50;99.90;;;;;;4912018;29;20024;-83
2022/11/22 01:30:42;;;;;;;52.42;26.33;;;1.50;99.90;;;;;;4913383;29;20239;-83
2022/11/22 01:33:08;;;;;;;53.42;27.95;;;1.50;99.90;;;;;;4921358;29;20039;-82
2022/11/22 01:35:35;;;;;;;50.78;24.83;;;1.50;99.90;;;;;;4906835;29;20128;-82
2022/11/22 01:38:00;;;;;;;47.85;23.75;;;1.50;99.90;;;;;;4910789;29;20055;-82
2022/11/22 01:40:26;;;;;;;52.03;25.25;;;1.50;99.90;;;;;;4914058;29;20056;-82
2022/11/22 01:42:57;;;;;;;49.95;25.30;;;1.50;99.90;;;;;;4909313;29;20374;-82
2022/11/22 01:45:29;;;;;;;44.70;23.88;;;1.50;99.90;;;;;;4913386;29;20043;-81
2022/11/22 01:48:12;;;;;;;52.60;26.40;;;1.50;99.90;;;;;;4919749;29;20126;-83
2022/11/22 01:50:42;;;;;;;47.13;25.25;;;1.50;99.90;;;;;;4909616;29;20064;-83
2022/11/22 01:53:30;;;;;;;51.95;26.42;;;1.50;99.90;;;;;;4917996;29;20040;-83
2022/11/22 01:55:57;;;;;;;50.90;27.38;;;1.50;99.90;;;;;;4915275;29;20036;-82
2022/11/22 01:58:28;;;;;;;50.42;26.60;;;1.60;99.90;;;;;;4916194;29;20032;-82
2022/11/22 02:00:55;;;;;;;57.75;26.00;;;1.60;99.90;;;;;;4912478;29;20083;-82
2022/11/22 02:03:22;;;;;;;46.38;25.05;;;1.60;99.90;;;;;;4915258;29;20032;-81
2022/11/22 02:05:49;;;;;;;45.10;25.30;;;1.60;99.90;;;;;;4912188;29;20035;-82
2022/11/22 02:08:23;;;;;;;53.47;25.80;;;1.50;99.90;;;;;;4913287;29;20035;-83
2022/11/22 02:10:53;;;;;;;55.92;25.90;;;1.50;99.90;;;;;;4921128;29;20024;-82
2022/11/22 02:13:21;;;;;;;56.90;27.70;;;1.50;99.90;;;;;;4916897;29;20040;-82
2022/11/22 02:15:48;;;;;;;52.88;25.85;;;1.50;99.90;;;;;;4908015;29;20029;-80
2022/11/22 02:18:13;;;;;;;48.50;24.35;;;1.40;99.90;;;;;;4908477;29;20243;-81
2022/11/22 02:20:39;;;;;;;59.08;26.92;;;1.40;99.90;;;;;;4901136;29;20050;-81
2022/11/22 02:23:08;;;;;;;52.45;23.58;;;1.40;99.90;;;;;;4920436;29;20405;-82
2022/11/22 02:25:40;;;;;;;50.63;25.73;;;1.40;99.90;;;;;;4907007;29;20024;-82
2022/11/22 02:28:10;;;;;;;49.63;25.05;;;1.40;99.90;;;;;;4904089;29;20027;-81
2022/11/22 02:30:36;;;;;;;53.05;25.08;;;1.40;99.90;;;;;;4912404;29;20029;-82
2022/11/22 02:33:02;;;;;;;48.33;23.40;;;1.40;99.90;;;;;;4912712;29;20046;-82
2022/11/22 02:35:28;;;;;;;52.33;24.88;;;1.40;99.90;;;;;;4912984;29;20580;-82
2022/11/22 02:38:08;;;;;;;54.55;26.92;;;1.40;99.90;;;;;;4913238;29;20031;-82
2022/11/22 02:40:41;;;;;;;50.22;24.98;;;1.40;99.90;;;;;;4916977;29;20028;-82
2022/11/22 02:43:15;;;;;;;54.08;24.88;;;1.30;99.90;;;;;;4913896;29;20039;-83
2022/11/22 02:45:41;;;;;;;48.95;24.35;;;1.30;99.90;;;;;;4914857;29;20466;-82
2022/11/22 02:48:12;;;;;;;49.55;24.15;;;1.30;99.90;;;;;;4909263;29;20048;-82
2022/11/22 02:50:38;;;;;;;54.42;25.90;;;1.30;99.90;;;;;;4908558;29;20481;-81
2022/11/22 02:53:05;;;;;;;57.08;27.05;;;1.30;99.90;;;;;;4916090;29;20051;-82
2022/11/22 02:55:31;;;;;;;52.97;25.20;;;1.30;99.90;;;;;;4915276;29;20019;-82
2022/11/22 02:57:57;;;;;;;46.20;23.05;;;1.20;99.90;;;;;;4912278;29;20036;-82
2022/11/22 03:00:23;;;;;;;49.10;23.67;;;1.20;99.90;;;;;;4915415;29;20061;-81
2022/11/22 03:02:50;;;;;;;47.40;24.98;;;1.20;99.90;;;;;;4914583;29;20520;-82
2022/11/22 03:05:16;;;;;;;47.08;23.23;;;1.20;99.90;;;;;;4918426;29;20027;-82
2022/11/22 03:07:42;;;;;;;55.83;25.27;;;1.10;99.90;;;;;;4916506;29;20024;-79
2022/11/22 03:10:08;;;;;;;50.97;26.38;;;1.20;99.90;;;;;;4914123;29;20020;-82
2022/11/22 03:12:34;;;;;;;53.22;25.33;;;1.20;99.90;;;;;;4917440;29;20036;-82
2022/11/22 03:14:59;;;;;;;49.53;25.27;;;1.20;99.90;;;;;;4914888;29;20509;-82
2022/11/22 03:17:25;;;;;;;57.53;27.30;;;1.20;99.90;;;;;;4922787;29;20369;-80
2022/11/22 03:19:50;;;;;;;53.55;25.58;;;1.20;99.90;;;;;;4912864;29;20028;-83
2022/11/22 03:22:16;;;;;;;52.42;25.90;;;1.20;99.90;;;;;;4918775;29;20450;-83
2022/11/22 03:24:42;;;;;;;52.28;26.40;;;1.20;99.90;;;;;;4915357;29;20016;-82
2022/11/22 03:27:07;;;;;;;53.13;25.85;;;1.10;99.90;;;;;;4919683;29;20024;-83
2022/11/22 03:29:33;;;;;;;57.33;26.63;;;1.10;99.90;;;;;;4913573;29;20374;-82
2022/11/22 03:31:59;;;;;;;57.85;26.90;;;1.20;99.90;;;;;;4914167;29;20680;-82
2022/11/22 03:34:25;;;;;;;58.80;27.13;;;1.20;99.90;;;;;;4913174;29;20031;-82
2022/11/22 03:36:50;;;;;;;55.97;25.33;;;1.20;99.90;;;;;;4916442;29;20035;-81
2022/11/22 03:39:16;;;;;;;61.70;27.60;;;1.10;99.90;;;;;;4918856;29;20031;-82
2022/11/22 03:41:42;;;;;;;53.97;25.80;;;1.10;99.90;;;;;;4917410;29;20047;-83
2022/11/22 03:44:07;;;;;;;53.95;25.65;;;1.10;99.90;;;;;;4911528;29;20375;-83
2022/11/22 03:46:33;;;;;;;61.97;26.23;;;1.10;99.90;;;;;;4914349;29;20072;-82
2022/11/22 03:48:58;;;;;;;57.25;26.75;;;1.00;99.90;;;;;;4914012;29;20032;-82
2022/11/22 03:51:26;;;;;;;60.20;28.02;;;1.10;99.90;;;;;;4915869;29;20481;-80
2022/11/22 03:53:52;;;;;;;62.10;28.75;;;1.00;99.90;;;;;;4916768;29;20370;-82
2022/11/22 03:56:17;;;;;;;50.38;24.42;;;1.10;99.90;;;;;;4911134;29;20044;-80
2022/11/22 03:58:43;;;;;;;62.78;29.23;;;1.10;99.90;;;;;;4913339;29;20331;-82
2022/11/22 04:01:09;;;;;;;55.85;26.00;;;1.10;99.90;;;;;;4911224;29;20051;-82
2022/11/22 04:03:34;;;;;;;64.88;29.25;;;1.00;99.90;;;;;;4909961;29;20040;-82
2022/11/22 04:06:00;;;;;;;62.67;29.90;;;1.10;99.90;;;;;;4912156;29;20449;-79
2022/11/22 04:08:26;;;;;;;74.82;32.97;;;1.10;99.90;;;;;;4917257;29;20104;-82
2022/11/22 04:10:52;;;;;;;67.03;31.77;;;1.10;99.90;;;;;;4909871;29;20030;-83
2022/11/22 04:13:18;;;;;;;58.95;28.17;;;1.10;99.90;;;;;;4914496;29;20043;-82
2022/11/22 04:15:44;;;;;;;56.65;26.15;;;1.10;99.90;;;;;;4911979;29;20021;-82
2022/11/22 04:18:12;;;;;;;55.50;25.27;;;1.10;99.90;;;;;;4915065;29;20039;-79
2022/11/22 04:23:35;;;;;;;32.72;16.58;;;1.30;99.90;;;;;;4882180;29;20039;-82
2022/11/22 04:26:01;;;;;;;41.28;18.80;;;1.40;99.90;;;;;;4912865;29;20115;-81
2022/11/22 04:28:27;;;;;;;34.42;16.50;;;1.50;99.90;;;;;;4912041;29;20399;-81
2022/11/22 04:33:43;;;;;;;33.15;16.88;;;1.70;99.90;;;;;;4918423;29;20047;-81
2022/11/22 04:36:10;;;;;;;24.45;13.80;;;1.90;99.90;;;;;;4911933;29;20103;-80
2022/11/22 04:38:36;;;;;;;31.90;14.52;;;1.90;99.90;;;;;;4912791;29;20050;-83
2022/11/22 04:41:01;;;;;;;25.85;14.38;;;2.10;99.90;;;;;;4915831;29;20024;-82
2022/11/22 04:46:14;;;;;;;22.10;11.27;;;2.20;99.90;;;;;;4911976;29;20064;-82
2022/11/22 04:48:40;;;;;;;21.25;12.77;;;2.30;99.90;;;;;;4906888;29;20111;-80
2022/11/22 04:53:51;;;;;;;23.67;12.13;;;2.30;99.90;;;;;;4911735;29;20051;-80
2022/11/22 04:56:17;;;;;;;20.45;11.63;;;2.30;99.90;;;;;;4911226;29;20020;-80
2022/11/22 04:58:43;;;;;;;22.98;11.57;;;2.30;99.90;;;;;;4909971;29;20024;-81
2022/11/22 05:01:09;;;;;;;20.73;11.95;;;2.30;99.90;;;;;;4918777;29;20413;-81
2022/11/22 05:03:35;;;;;;;21.95;11.07;;;2.30;99.90;;;;;;4907336;29;20031;-81
2022/11/22 05:06:02;;;;;;;24.52;11.88;;;2.40;99.90;;;;;;4913709;29;20020;-81
2022/11/22 05:08:28;;;;;;;19.48;10.45;;;2.40;99.90;;;;;;4912367;29;20234;-81
2022/11/22 05:10:57;;;;;;;19.52;10.38;;;2.50;99.90;;;;;;4911969;29;20454;-81
2022/11/22 05:13:30;;;;;;;18.65;10.02;;;2.50;99.90;;;;;;4905312;29;20501;-82
2022/11/22 05:15:57;;;;;;;20.98;10.48;;;2.50;99.90;;;;;;4907709;29;20024;-81
2022/11/22 05:18:25;;;;;;;15.70;9.50;;;2.50;99.90;;;;;;4912657;29;20500;-81
2022/11/22 05:20:51;;;;;;;13.50;8.88;;;2.50;99.90;;;;;;4910366;29;20032;-78
2022/11/22 05:26:03;;;;;;;29.08;10.60;;;2.60;99.90;;;;;;4900275;29;20040;-80
2022/11/22 05:28:30;;;;;;;15.93;8.65;;;2.60;99.90;;;;;;4909172;29;20374;-80
2022/11/22 05:30:55;;;;;;;20.25;10.68;;;2.70;99.90;;;;;;4914615;29;20044;-81
2022/11/22 05:33:21;;;;;;;28.58;15.95;;;2.70;99.90;;;;;;4909594;29;20036;-81
2022/11/22 05:35:47;;;;;;;34.75;17.38;;;2.70;99.90;;;;;;4904261;29;20031;-80
2022/11/22 05:38:13;;;;;;;33.50;17.30;;;2.60;99.90;;;;;;4906175;29;20036;-80
2022/11/22 05:40:38;;;;;;;32.53;16.67;;;2.50;99.90;;;;;;4904094;29;20035;-82
2022/11/22 05:43:04;;;;;;;41.85;19.30;;;2.40;99.90;;;;;;4906860;29;20024;-81
2022/11/22 05:45:30;;;;;;;31.58;17.30;;;2.40;99.90;;;;;;4907221;29;20508;-80
2022/11/22 05:47:56;;;;;;;39.05;20.08;;;2.40;99.90;;;;;;4904524;29;20056;-81
2022/11/22 05:50:21;;;;;;;37.72;18.20;;;2.30;99.90;;;;;;4904479;29;20032;-80
2022/11/22 05:52:47;;;;;;;41.72;20.05;;;2.20;99.90;;;;;;4904896;29;20059;-81
2022/11/22 05:55:13;;;;;;;35.30;17.73;;;2.20;99.90;;;;;;4903917;29;20044;-81
2022/11/22 05:57:38;;;;;;;34.90;17.20;;;2.10;99.90;;;;;;4905516;29;20043;-80
2022/11/22 06:00:05;;;;;;;39.53;19.23;;;2.10;99.90;;;;;;4906548;29;20596;-80
2022/11/22 06:02:31;;;;;;;38.38;19.50;;;2.10;99.90;;;;;;4912869;29;20020;-81
2022/11/22 06:04:57;;;;;;;35.35;18.63;;;2.00;99.90;;;;;;4904437;29;20043;-80
2022/11/22 06:07:22;;;;;;;42.40;20.05;;;2.00;99.90;;;;;;4906059;29;20486;-80
2022/11/22 06:09:48;;;;;;;34.13;17.58;;;2.00;99.90;;;;;;4906720;29;20028;-80
2022/11/22 06:12:14;;;;;;;32.50;17.45;;;2.00;99.90;;;;;;4912894;29;20043;-80
2022/11/22 06:14:40;;;;;;;39.13;18.35;;;1.90;99.90;;;;;;4910041;29;20031;-80
2022/11/22 06:17:05;;;;;;;34.15;18.65;;;1.90;99.90;;;;;;4911322;29;20020;-81
2022/11/22 06:19:31;;;;;;;31.83;17.17;;;1.90;99.90;;;;;;4913835;29;20039;-81
2022/11/22 06:21:56;;;;;;;31.77;16.90;;;2.00;99.90;;;;;;4919948;29;20024;-80
2022/11/22 06:24:22;;;;;;;44.92;21.30;;;2.00;99.90;;;;;;4908658;29;20431;-80
2022/11/22 06:26:48;;;;;;;40.15;20.13;;;2.00;99.90;;;;;;4922495;29;20026;-80
2022/11/22 06:29:14;;;;;;;38.05;18.60;;;2.00;99.90;;;;;;4914839;29;20028;-81
2022/11/22 06:31:39;;;;;;;34.28;17.05;;;2.00;99.90;;;;;;4912585;29;20068;-80
2022/11/22 06:34:05;;;;;;;38.53;19.15;;;2.00;99.90;;;;;;4916959;29;20052;-81
2022/11/22 06:36:33;;;;;;;39.65;20.00;;;2.00;99.90;;;;;;4905671;29;20036;-81
2022/11/22 06:39:02;;;;;;;41.97;20.67;;;2.00;99.90;;;;;;4911759;29;20036;-81
2022/11/22 06:41:32;;;;;;;38.30;19.40;;;2.00;99.90;;;;;;4917821;29;20027;-81
2022/11/22 06:43:58;;;;;;;32.35;16.75;;;2.00;99.90;;;;;;4912046;29;20051;-82
2022/11/22 06:46:26;;;;;;;28.83;14.00;;;2.00;99.90;;;;;;4908149;29;20066;-80
2022/11/22 06:48:52;;;;;;;25.45;13.75;;;2.00;99.90;;;;;;4906791;29;20048;-81
2022/11/22 06:51:20;;;;;;;23.23;12.57;;;2.20;99.90;;;;;;4911757;29;20036;-81
2022/11/22 06:53:55;;;;;;;32.70;23.42;;;2.20;99.90;;;;;;4909977;29;20516;-81
2022/11/22 06:56:27;;;;;;;33.28;18.15;;;2.20;99.90;;;;;;4922095;29;20078;-81
2022/11/22 06:58:53;;;;;;;56.83;26.65;;;2.20;99.90;;;;;;4924548;29;20071;-80
2022/11/22 07:01:22;;;;;;;59.83;28.10;;;2.30;99.90;;;;;;4924105;29;20477;-80
2022/11/22 07:03:50;;;;;;;50.72;25.85;;;2.20;99.90;;;;;;4923605;29;20035;-81
2022/11/22 07:06:18;;;;;;;52.28;26.08;;;2.10;99.90;;;;;;4927381;29;20027;-81
2022/11/22 07:08:44;;;;;;;51.85;24.60;;;2.00;99.90;;;;;;4925557;29;20350;-81
2022/11/22 07:11:12;;;;;;;51.80;25.98;;;1.90;99.90;;;;;;4933154;29;20051;-79
2022/11/22 07:13:38;;;;;;;53.97;27.08;;;1.90;99.90;;;;;;4933357;29;20039;-79
2022/11/22 07:16:06;;;;;;;62.50;28.90;;;1.90;99.90;;;;;;4921494;29;20024;-81
2022/11/22 07:18:32;;;;;;;62.30;29.40;;;1.80;99.90;;;;;;4924464;29;20031;-81
2022/11/22 07:21:01;;;;;;;61.83;28.90;;;1.70;99.90;;;;;;4932875;29;20023;-80
2022/11/22 07:23:28;;;;;;;59.17;29.05;;;1.70;99.90;;;;;;4924777;29;20052;-81
2022/11/22 07:25:55;;;;;;;61.13;28.17;;;1.60;99.90;;;;;;4922358;29;20109;-81
2022/11/22 07:28:20;;;;;;;56.90;27.48;;;1.60;99.90;;;;;;4918235;29;20039;-81
2022/11/22 07:30:46;;;;;;;56.05;27.25;;;1.60;99.90;;;;;;4921566;29;20215;-81
2022/11/22 07:33:12;;;;;;;60.42;30.42;;;1.50;99.90;;;;;;4925310;29;20498;-81
2022/11/22 07:35:37;;;;;;;164.45;67.05;;;1.60;99.90;;;;;;4919174;29;20378;-82
2022/11/22 07:38:03;;;;;;;136.90;57.90;;;1.60;99.90;;;;;;4921345;29;20115;-82
2022/11/22 07:40:30;;;;;;;154.90;69.68;;;1.60;99.90;;;;;;4920502;29;20032;-82
2022/11/22 07:42:55;;;;;;;105.20;48.17;;;1.60;99.90;;;;;;4920283;29;20087;-81
2022/11/22 07:45:21;;;;;;;88.88;39.50;;;1.60;99.90;;;;;;4919722;29;20107;-81
2022/11/22 07:47:47;;;;;;;101.53;46.83;;;1.60;99.90;;;;;;4919151;29;20051;-81
2022/11/22 07:50:13;;;;;;;276.20;114.47;;;1.60;99.90;;;;;;4920249;29;20421;-81
2022/11/22 07:52:38;;;;;;;73.97;36.25;;;1.60;99.90;;;;;;4919092;29;20496;-82
2022/11/22 07:55:05;;;;;;;97.85;47.30;;;1.60;99.90;;;;;;4920690;29;20035;-81
2022/11/22 07:57:31;;;;;;;71.75;35.45;;;1.60;99.90;;;;;;4918682;29;20478;-81
2022/11/22 07:59:57;;;;;;;78.15;38.50;;;1.60;99.90;;;;;;4918355;29;20051;-82
2022/11/22 08:02:23;;;;;;;83.97;42.05;;;1.50;99.90;;;;;;4915406;29;20469;-79
2022/11/22 08:04:49;;;;;;;74.32;37.97;;;1.50;99.90;;;;;;4918371;29;20083;-81
2022/11/22 08:07:15;;;;;;;74.07;34.22;;;1.50;99.90;;;;;;4918025;29;20027;-78
2022/11/22 08:09:41;;;;;;;63.90;31.75;;;1.50;99.90;;;;;;4924566;29;20075;-81
2022/11/22 08:12:06;;;;;;;58.72;30.25;;;1.50;99.90;;;;;;4917868;29;20032;-81
2022/11/22 08:14:32;;;;;;;64.45;30.67;;;1.50;99.90;;;;;;4919276;29;20080;-81
2022/11/22 08:16:57;;;;;;;63.50;30.27;;;1.50;99.90;;;;;;4923178;29;20024;-82
2022/11/22 08:19:23;;;;;;;69.72;33.13;;;1.50;99.90;;;;;;4913295;29;20321;-81
2022/11/22 08:21:49;;;;;;;78.90;35.47;;;1.60;99.90;;;;;;4918093;29;20411;-81
2022/11/22 08:24:15;;;;;;;78.55;35.38;;;1.60;99.90;;;;;;4918893;29;20466;-82
2022/11/22 08:26:41;;;;;;;75.40;34.63;;;1.70;99.90;;;;;;4918784;29;20036;-81
2022/11/22 08:29:09;;;;;;;65.95;32.25;;;1.70;99.90;;;;;;4925401;29;20051;-81
2022/11/22 08:31:35;;;;;;;68.15;31.00;;;1.70;99.90;;;;;;4919046;29;20079;-82
2022/11/22 08:34:01;;;;;;;62.63;32.40;;;1.80;99.90;;;;;;4918288;29;20050;-81
2022/11/22 08:36:27;;;;;;;62.40;30.35;;;1.70;99.90;;;;;;4924832;29;20134;-81
2022/11/22 08:38:53;;;;;;;69.05;33.38;;;1.80;99.90;;;;;;4916920;29;20024;-80
2022/11/22 08:41:18;;;;;;;70.45;35.58;;;1.80;99.90;;;;;;4918555;29;20031;-81
2022/11/22 08:43:44;;;;;;;73.65;35.53;;;1.80;99.90;;;;;;4918128;29;20024;-81
2022/11/22 08:46:12;;;;;;;71.65;32.72;;;1.80;99.90;;;;;;4917522;29;20028;-79
2022/11/22 08:48:38;;;;;;;74.57;32.17;;;1.80;99.90;;;;;;4916756;29;20490;-81
2022/11/22 08:51:09;;;;;;;74.82;34.33;;;1.80;99.90;;;;;;4918002;29;20043;-82
2022/11/22 08:53:37;;;;;;;75.35;34.17;;;1.90;99.90;;;;;;4913407;29;20036;-82
2022/11/22 08:56:05;;;;;;;65.95;32.55;;;1.90;99.90;;;;;;4917551;29;20114;-82
2022/11/22 08:58:32;;;;;;;68.93;34.35;;;2.00;99.90;;;;;;4916868;29;20043;-83
2022/11/22 09:01:10;;;;;;;71.10;32.17;;;2.00;99.90;;;;;;4917160;29;20056;-81
2022/11/22 09:03:36;;;;;;;59.35;30.40;;;2.00;99.90;;;;;;4913099;29;20019;-81
2022/11/22 09:06:08;;;;;;;61.72;34.22;;;2.00;99.90;;;;;;4915395;29;20036;-82
2022/11/22 09:08:35;;;;;;;63.47;32.33;;;2.00;99.90;;;;;;4896738;29;20024;-82
2022/11/22 09:11:02;;;;;;;60.50;32.05;;;2.00;99.90;;;;;;4908272;29;20585;-81
2022/11/22 09:13:29;;;;;;;67.82;34.00;;;2.10;99.90;;;;;;4917728;29;20040;-81
2022/11/22 09:16:02;;;;;;;62.15;31.90;;;2.00;99.90;;;;;;4914033;29;20023;-79
2022/11/22 09:18:27;;;;;;;63.53;32.03;;;2.00;99.90;;;;;;4915801;29;20325;-81
2022/11/22 09:20:58;;;;;;;57.30;30.00;;;2.00;99.90;;;;;;4902359;29;20028;-82
2022/11/22 09:23:24;;;;;;;65.88;32.38;;;2.10;99.90;;;;;;4902620;29;20418;-82
2022/11/22 09:26:03;;;;;;;63.85;29.35;;;2.10;99.90;;;;;;4913570;29;20036;-82
2022/11/22 09:28:29;;;;;;;55.50;27.67;;;2.10;99.90;;;;;;4905351;29;20046;-82
2022/11/22 09:31:06;;;;;;;61.33;27.83;;;2.10;99.90;;;;;;4911539;29;20024;-81
2022/11/22 09:33:35;;;;;;;63.22;27.15;;;2.10;99.90;;;;;;4914990;29;20033;-82
2022/11/22 09:36:12;;;;;;;39.25;19.23;;;2.20;99.90;;;;;;4910507;29;20036;-82
2022/11/22 09:38:38;;;;;;;33.17;15.02;;;2.30;99.90;;;;;;4909611;29;20170;-82
2022/11/22 09:41:13;;;;;;;25.83;12.70;;;2.40;99.90;;;;;;4908815;29;20180;-81
2022/11/22 09:43:50;;;;;;;39.25;12.50;;;2.80;99.90;;;;;;4914143;29;20024;-82
2022/11/22 09:46:32;;;;;;;22.40;12.15;;;2.90;99.90;;;;;;4917604;29;20032;-80
2022/11/22 09:49:13;;;;;;;24.73;10.50;;;3.10;99.90;;;;;;4921445;29;20031;-82
2022/11/22 09:51:45;;;;;;;27.52;10.32;;;3.30;99.90;;;;;;4907475;29;20055;-82
2022/11/22 09:54:17;;;;;;;27.38;11.73;;;3.50;99.90;;;;;;4913203;29;20040;-81
2022/11/22 09:56:43;;;;;;;18.25;9.48;;;3.60;99.90;;;;;;4907335;29;20298;-81
2022/11/22 09:59:19;;;;;;;21.88;10.27;;;3.60;99.90;;;;;;4911200;29;20043;-79
2022/11/22 10:01:52;;;;;;;20.58;9.98;;;3.70;99.90;;;;;;4911320;29;20505;-81
2022/11/22 10:04:23;;;;;;;18.77;9.18;;;3.70;99.90;;;;;;4919252;29;20036;-83
2022/11/22 10:06:54;;;;;;;14.07;8.40;;;3.90;99.90;;;;;;4909122;29;20025;-83
2022/11/22 10:09:44;;;;;;;16.90;9.20;;;4.00;99.90;;;;;;4915386;29;20118;-83
2022/11/22 10:12:23;;;;;;;16.05;9.50;;;4.00;99.90;;;;;;4907963;29;20115;-82
2022/11/22 10:14:51;;;;;;;17.55;9.32;;;4.00;99.90;;;;;;4904082;29;20054;-82
2022/11/22 10:17:27;;;;;;;14.38;8.30;;;4.00;99.90;;;;;;4916669;29;20031;-81
2022/11/22 10:20:01;;;;;;;13.57;8.43;;;3.90;99.90;;;;;;4904371;29;20386;-81
2022/11/22 10:22:30;;;;;;;15.23;9.18;;;3.90;99.90;;;;;;4914943;29;20461;-82
2022/11/22 10:24:58;;;;;;;17.05;8.45;;;3.80;99.90;;;;;;4914751;29;20028;-82
2022/11/22 10:27:30;;;;;;;15.10;8.95;;;3.80;99.90;;;;;;4914437;29;20043;-82
2022/11/22 10:30:04;;;;;;;20.48;9.10;;;3.80;99.90;;;;;;4922200;29;20016;-82
2022/11/22 10:32:36;;;;;;;18.38;10.10;;;3.90;99.90;;;;;;4911219;29;20032;-82
2022/11/22 10:35:13;;;;;;;14.82;9.75;;;3.90;99.90;;;;;;4911604;29;20034;-82
2022/11/22 10:38:02;;;;;;;17.30;8.13;;;3.90;99.90;;;;;;4912530;29;20039;-81
2022/11/22 10:40:39;;;;;;;15.95;9.05;;;3.90;99.90;;;;;;4918465;29;20083;-82
2022/11/22 10:43:22;;;;;;;17.33;8.52;;;3.90;99.90;;;;;;4919074;29;20019;-82
2022/11/22 10:45:51;;;;;;;14.82;9.07;;;3.90;99.90;;;;;;4912667;29;20036;-82
2022/11/22 10:48:29;;;;;;;23.88;9.13;;;3.90;99.90;;;;;;4920711;29;20147;-82
2022/11/22 10:51:19;;;;;;;20.80;9.18;;;4.00;99.90;;;;;;4912254;29;20398;-81
2022/11/22 10:53:57;;;;;;;20.98;8.88;;;4.00;99.90;;;;;;4913308;29;20488;-82
2022/11/22 10:56:31;;;;;;;17.63;7.40;;;4.10;99.90;;;;;;4912693;29;20024;-82
2022/11/22 10:59:28;;;;;;;12.70;7.35;;;4.10;99.90;;;;;;4915129;29;20028;-82
2022/11/22 11:02:28;;;;;;;11.50;7.15;;;4.00;99.90;;;;;;4915079;29;20472;-82
2022/11/22 11:04:56;;;;;;;16.45;8.82;;;4.10;99.90;;;;;;4915402;29;20084;-81
2022/11/22 11:07:23;;;;;;;16.70;8.90;;;4.10;99.90;;;;;;4916825;29;20461;-82
2022/11/22 11:10:16;;;;;;;16.42;8.20;;;4.20;99.90;;;;;;4914872;29;20028;-80
2022/11/22 11:12:54;;;;;;;20.35;8.57;;;4.20;99.90;;;;;;4917575;29;20070;-81
2022/11/22 11:15:27;;;;;;;17.25;8.70;;;4.10;99.90;;;;;;4913157;29;20036;-82
2022/11/22 11:18:02;;;;;;;19.30;9.20;;;4.20;99.90;;;;;;4916478;29;20091;-81
2022/11/22 11:20:35;;;;;;;18.92;9.15;;;4.20;99.90;;;;;;4878323;23;20047;-83
2022/11/22 11:23:01;;;;;;;27.55;10.27;;;4.20;99.90;;;;;;4950329;28;20054;-82
2022/11/22 11:25:39;;;;;;;21.23;12.30;;;4.20;99.90;;;;;;4959697;28;20452;-81
2022/11/22 11:28:26;;;;;;;25.30;12.32;;;4.20;99.90;;;;;;4956285;28;20154;-81
2022/11/22 11:30:55;;;;;;;26.42;13.98;;;4.20;99.90;;;;;;4948937;28;20058;-82
2022/11/22 11:33:25;;;;;;;22.77;13.18;;;4.20;99.90;;;;;;4950857;28;20051;-80
2022/11/22 11:36:05;;;;;;;31.52;14.43;;;4.30;99.90;;;;;;4945330;28;20077;-81
2022/11/22 11:38:34;;;;;;;26.65;13.23;;;4.30;99.90;;;;;;4956144;28;20015;-81
2022/11/22 11:41:21;;;;;;;28.00;13.25;;;4.30;99.90;;;;;;4952063;28;20019;-81
2022/11/22 11:43:48;;;;;;;22.10;11.18;;;4.40;99.90;;;;;;4952630;28;20039;-81
2022/11/22 11:46:19;;;;;;;30.30;10.65;;;4.50;99.90;;;;;;4954757;28;20035;-82
2022/11/22 11:48:46;;;;;;;22.88;10.52;;;4.40;99.90;;;;;;4953165;28;20066;-81
2022/11/22 11:51:24;;;;;;;23.63;9.98;;;4.50;99.90;;;;;;4951117;28;20023;-81
2022/11/22 11:53:55;;;;;;;26.13;11.40;;;4.50;99.90;;;;;;4950617;28;20039;-81
2022/11/22 11:56:39;;;;;;;19.30;10.98;;;4.50;99.90;;;;;;4950489;28;20035;-80
2022/11/22 11:59:19;;;;;;;20.30;9.20;;;4.50;99.90;;;;;;4956089;28;20050;-82
2022/11/22 12:02:15;;;;;;;15.48;7.60;;;4.60;99.90;;;;;;4951017;28;20023;-82
2022/11/22 12:04:52;;;;;;;18.00;7.80;;;4.60;99.90;;;;;;4915671;28;20468;-81
2022/11/22 12:07:26;;;;;;;20.65;8.52;;;4.60;99.90;;;;;;4951884;28;20059;-81
2022/11/22 12:09:53;;;;;;;17.38;8.27;;;4.70;99.90;;;;;;4959011;28;20050;-81
2022/11/22 12:12:32;;;;;;;21.33;8.40;;;4.70;99.90;;;;;;4959882;28;20030;-82
2022/11/22 12:15:25;;;;;;;24.45;9.55;;;4.80;99.90;;;;;;4949565;28;20158;-81
2022/11/22 12:18:16;;;;;;;16.17;9.10;;;4.80;99.90;;;;;;4940974;28;20047;-82
2022/11/22 12:21:12;;;;;;;24.30;10.93;;;4.80;99.90;;;;;;4956268;28;20055;-81
2022/11/22 12:23:59;;;;;;;21.50;9.88;;;4.90;99.90;;;;;;4960491;28;20568;-80
2022/11/22 12:26:26;;;;;;;21.77;8.98;;;4.90;99.90;;;;;;4953257;28;20053;-80
2022/11/22 12:28:53;;;;;;;22.05;9.73;;;4.90;99.90;;;;;;4958271;28;20034;-82
2022/11/22 12:31:24;;;;;;;19.45;8.95;;;4.90;99.90;;;;;;4960028;28;20023;-81
2022/11/22 12:33:55;;;;;;;19.63;8.43;;;5.00;99.90;;;;;;4958941;28;20040;-81
2022/11/22 12:37:16;;;;;;;23.15;9.90;;;5.00;99.90;;;;;;4942227;28;20030;-81
2022/11/22 12:39:47;;;;;;;20.42;9.15;;;5.00;99.90;;;;;;4854109;29;20064;-81
2022/11/22 12:42:19;;;;;;;21.05;9.63;;;5.00;99.90;;;;;;4932702;28;20035;-81
2022/11/22 12:44:53;;;;;;;14.90;8.25;;;5.00;99.90;;;;;;4953355;28;20027;-81
2022/11/22 12:47:27;;;;;;;13.50;8.02;;;5.00;99.90;;;;;;4953205;28;20031;-81
2022/11/22 12:50:34;;;;;;;16.20;7.97;;;5.00;99.90;;;;;;4947453;28;20495;-82
2022/11/22 12:53:28;;;;;;;22.15;6.05;;;5.10;99.90;;;;;;4922219;28;20684;-82
2022/11/22 12:56:06;;;;;;;31.75;6.95;;;5.20;99.90;;;;;;4961840;28;20388;-82
2022/11/22 12:58:46;;;;;;;16.90;7.47;;;5.40;99.90;;;;;;4947674;28;20476;-82
2022/11/22 13:01:34;;;;;;;25.95;7.35;;;5.60;99.90;;;;;;4948987;28;20027;-81
2022/11/22 13:04:18;;;;;;;25.02;7.03;;;5.70;99.90;;;;;;4944553;28;20051;-80